Sunday, May 24, 2015, 9:03 AM EDT

KFDK, Frederick, Frederick Municipal Airport

Location: Frederick, MD, United States Lat: 39.417
Local Time: 9:03 AM EDT (13:03 GMT) Lon: -77.374
Time Zone: US/Eastern Elev: 301 ft

Show me the last for .
Show Decoded

2015-05-24 08:48 METAR KFDK 241248Z 00000KT 10SM SKC 17/12 A3041 =
2015-05-24 07:47 METAR KFDK 241147Z 00000KT 10SM SKC 13/11 A3042 =
2015-05-24 06:45 METAR KFDK 241045Z 00000KT 10SM SKC 08/08 A3041 =
2015-05-24 06:25 METAR KFDK 241025Z AUTO 00000KT 7SM CLR 07/07 A3041 RMK AO2 =
2015-05-24 06:05 METAR KFDK 241005Z AUTO 00000KT 10SM CLR 07/07 A3041 RMK AO2 =
2015-05-24 05:25 METAR KFDK 240925Z AUTO 00000KT 10SM CLR 07/07 A3040 RMK AO2 =
2015-05-24 05:05 METAR KFDK 240905Z AUTO 00000KT 3SM BR CLR 07/07 A3040 RMK AO2 =
2015-05-24 04:45 METAR KFDK 240845Z AUTO 00000KT 10SM CLR 07/07 A3039 RMK AO2 =
2015-05-24 04:25 METAR KFDK 240825Z AUTO 00000KT 10SM CLR 07/07 A3039 RMK AO2 =
2015-05-24 04:05 METAR KFDK 240805Z AUTO 00000KT 10SM CLR 08/08 A3039 RMK AO2 =
2015-05-24 03:45 METAR KFDK 240745Z AUTO 00000KT 10SM CLR 07/07 A3040 RMK AO2 =
2015-05-24 03:25 METAR KFDK 240725Z AUTO 00000KT 10SM CLR 08/08 A3040 RMK AO2 =
2015-05-24 03:05 METAR KFDK 240705Z AUTO 00000KT 10SM CLR 08/08 A3041 RMK AO2 =
2015-05-24 02:45 METAR KFDK 240645Z AUTO 00000KT 10SM CLR 08/08 A3041 RMK AO2 =
2015-05-24 02:25 METAR KFDK 240625Z AUTO 00000KT 10SM CLR 08/08 A3041 RMK AO2 =
2015-05-24 02:05 METAR KFDK 240605Z AUTO 00000KT 10SM CLR 08/08 A3040 RMK AO2 =
2015-05-24 01:45 METAR KFDK 240545Z AUTO 00000KT 10SM CLR 08/08 A3040 RMK AO2 =
2015-05-24 01:25 METAR KFDK 240525Z AUTO 00000KT 10SM CLR 08/08 A3041 RMK AO2 =
2015-05-24 01:05 METAR KFDK 240505Z AUTO 00000KT 10SM CLR 09/08 A3041 RMK AO2 =
2015-05-24 00:45 METAR KFDK 240445Z AUTO 00000KT 10SM CLR 09/08 A3041 =
2015-05-24 00:25 METAR KFDK 240425Z AUTO 00000KT 10SM CLR 09/08 A3041 RMK AO2 =
2015-05-24 00:05 METAR KFDK 240405Z AUTO 00000KT 10SM CLR 09/08 A3041 RMK AO2 =
2015-05-23 23:45 METAR KFDK 240345Z AUTO 00000KT 10SM CLR 10/08 A3040 RMK AO2 =
2015-05-23 23:25 METAR KFDK 240325Z AUTO 00000KT 10SM CLR 10/08 A3040 RMK AO2 =
2015-05-23 23:05 METAR KFDK 240305Z AUTO 00000KT 10SM CLR 11/09 A3040 RMK AO2 =
2015-05-23 22:45 METAR KFDK 240245Z AUTO 00000KT 10SM CLR 11/08 A3040 RMK AO2 =
2015-05-23 22:25 METAR KFDK 240225Z AUTO 00000KT 10SM CLR 11/09 A3040 RMK AO2 =
2015-05-23 22:05 METAR KFDK 240205Z AUTO 00000KT 10SM CLR 12/08 A3039 RMK AO2 =
2015-05-23 21:45 METAR KFDK 240145Z AUTO 00000KT 10SM CLR 13/08 A3038 RMK AO2 =
2015-05-23 21:25 METAR KFDK 240125Z AUTO 13003KT 10SM CLR 14/07 A3038 RMK AO2 =
2015-05-23 21:05 METAR KFDK 240105Z AUTO 14003KT 10SM CLR 15/07 A3038 RMK AO2 =
2015-05-23 20:45 METAR KFDK 240045Z AUTO 17003KT 10SM CLR 17/06 A3037 =
2015-05-23 19:45 METAR KFDK 232345Z 00000KT 10SM SKC 20/07 A3038 =
2015-05-23 18:50 METAR KFDK 232250Z VRB03KT 10SM SKC 22/04 A3038 =
2015-05-23 17:52 METAR KFDK 232152Z VRB03KT 10SM SKC 22/03 A3039 =
2015-05-23 16:50 METAR KFDK 232050Z 28006KT 10SM SKC 22/04 A3040 =
2015-05-23 15:45 METAR KFDK 231945Z 27004KT 10SM SKC 22/03 A3042 =
2015-05-23 14:47 METAR KFDK 231847Z VRB04KT 10SM SKC 21/02 A3043 =
2015-05-23 13:55 METAR KFDK 231755Z 00000KT 10SM SKC 20.03 A3045 =
2015-05-23 12:47 METAR KFDK 231647Z 00000NT 10SM SKC 19/03 A3047 =
2015-05-23 11:45 METAR KFDK 231545Z 00000KT 10SM SKC 18/01 A3049 =
2015-05-23 10:45 METAR KFDK 231445Z 19004KT 10SM SKC 17/00 A3049 =
2015-05-23 09:52 METAR KFDK 231352Z 00000KT 10SM SKC 16/02 A3049 =

Support USWX by starting your Amazon purchase here.